Last 48 Hours

Kelseyville-South

Hourly Data | America/Los_Angeles
as of 10/26/20 8:11 AM PDT
Date & Time Temp (°F) RH (%) Dew Pt (°F) Wet Bulb (°F) Wind Dir (°) Wind Spd (mph) Wind Gust (mph) Wind Gst Dir (°) Solar Rad (W/m2) Leaf Wet (mins) Latest Rain (In) Daily Rain (In) Daily Min Temp (°F) Daily Max Temp (°F) Daily ETo (in) Daily Leaf Wet Hrs (hrs)
10/26/20 - 0800 51.2 4 -20.5 34.1 SSE | 154 4.3 10.8 ESE | 123 10 0.0 0.00 0.00 47.9 57.2 0.015 0.0
10/26/20 - 0700 49.8 5 -17.4 33.5 SE | 129 2.4 10.1 SE | 141 0 0.0 0.00 0.00 47.9 57.2 0.013 0.0
10/26/20 - 0600 51.4 5 -18.2 34.3 NNE | 29 1.7 13.5 ENE | 60 0 0.0 0.00 0.00 47.9 57.2 0.013 0.0
10/26/20 - 0500 54.9 4 -21.2 36.0 NE | 51 6.0 23.5 ENE | 61 0 0.0 0.00 0.00 48.2 57.2 0.013 0.0
10/26/20 - 0400 55.4 3 -22.4 36.2 ENE | 71 7.7 20.2 ENE | 78 0 0.0 0.00 0.00 52.7 57.2 0.010 0.0
10/26/20 - 0300 55.6 4 -19.0 36.5 NE | 54 8.9 25.2 NE | 55 0 0.0 0.00 0.00 52.7 57.2 0.007 0.0
10/26/20 - 0200 56.0 5 -16.0 36.8 NE | 49 7.6 25.9 ENE | 57 0 0.0 0.00 0.00 52.7 57.2 0.003 0.0
10/26/20 - 0100 49.5 9 -8.3 34.0 SE | 129 2.6 9.8 ENE | 62 0 0.0 0.00 0.00 36.3 69.7 0.133 0.0
10/26/20 - 0000 49.2 9 -6.6 33.9 SSW | 206 1.7 5.4 W | 261 0 0.0 0.00 0.00 36.3 69.7 0.132 0.0
10/25/20 - 2300 48.7 11 -3.8 33.9 S | 178 1.0 6.8 ENE | 59 0 0.0 0.00 0.00 36.3 69.7 0.132 0.0
10/25/20 - 2200 56.8 8 -5.3 38.0 ENE | 61 3.0 9.5 E | 99 0 0.0 0.00 0.00 36.3 69.7 0.132 0.0
10/25/20 - 2100 57.5 7 -5.8 38.3 ENE | 77 4.3 9.1 ENE | 71 0 0.0 0.00 0.00 36.3 69.7 0.131 0.0
10/25/20 - 2000 59.6 7 -4.5 39.4 ENE | 57 6.0 17.2 ENE | 71 0 0.0 0.00 0.00 36.3 69.7 0.129 0.0
10/25/20 - 1900 61.9 6 -6.2 40.3 NE | 54 4.9 19.2 NE | 51 4 0.0 0.00 0.00 36.3 69.7 0.126 0.0
10/25/20 - 1800 66.1 5 -6.1 42.2 NE | 49 7.4 18.2 ENE | 69 135 0.0 0.00 0.00 36.3 69.7 0.124 0.0
10/25/20 - 1700 68.9 4 -9.3 43.2 NE | 40 5.5 18.8 NE | 39 339 0.0 0.00 0.00 36.3 69.7 0.116 0.0
10/25/20 - 1600 68.5 9 5.5 44.6 ENE | 78 5.5 15.2 NNE | 25 512 0.0 0.00 0.00 36.3 69.7 0.105 0.0
10/25/20 - 1500 67.8 17 21.3 46.8 ENE | 73 7.8 18.5 ENE | 71 632 0.0 0.00 0.00 36.3 68.6 0.090 0.0
10/25/20 - 1400 66.5 21 25.9 47.4 E | 89 7.7 16.8 ENE | 69 684 0.0 0.00 0.00 36.3 67.4 0.071 0.0
10/25/20 - 1300 65.6 22 26.1 47.0 ENE | 76 8.4 20.5 E | 89 695 0.0 0.00 0.00 36.3 66.7 0.052 0.0
10/25/20 - 1200 63.5 36 35.6 49.4 ENE | 76 4.2 17.5 NE | 50 629 0.0 0.00 0.00 36.3 65.4 0.032 0.0
10/25/20 - 1100 59.5 52 41.4 50.2 ESE | 102 0.8 6.4 ENE | 65 506 0.0 0.00 0.00 36.3 61.9 0.017 0.0
10/25/20 - 1000 52.0 80 45.9 49.3 W | 267 0.2 2.7 W | 263 339 0.0 0.00 0.00 36.3 55.7 0.007 0.0
10/25/20 - 0900 42.8 90 40.0 41.7 WSW | 237 0.0 2.1 WSW | 237 142 0.0 0.00 0.00 36.3 48.5 0.001 0.0
10/25/20 - 0800 36.7 93 35.0 36.0 N | 0 0.0 0.0 S | 186 9 0.0 0.00 0.00 36.3 43.0 0.000 0.0
10/25/20 - 0700 37.1 92 35.1 36.3 N | 0 0.0 0.0 S | 186 0 0.0 0.00 0.00 36.5 43.0 0.000 0.0
10/25/20 - 0600 37.7 92 35.6 36.9 N | 0 0.0 0.0 S | 186 0 0.0 0.00 0.00 36.6 43.0 0.000 0.0
10/25/20 - 0500 38.9 92 36.7 38.1 N | 0 0.0 0.0 S | 186 0 0.0 0.00 0.00 38.0 43.0 0.000 0.0
10/25/20 - 0400 39.8 90 37.2 38.8 S | 186 0.0 1.4 S | 186 0 0.0 0.00 0.00 39.0 43.0 0.000 0.0
10/25/20 - 0300 40.9 90 38.2 39.9 N | 0 0.0 0.0 S | 177 0 0.0 0.00 0.00 40.6 43.0 0.000 0.0
10/25/20 - 0200 42.1 88 38.8 40.8 N | 0 0.0 0.0 S | 177 0 0.0 0.00 0.00 41.3 43.0 0.000 0.0
10/25/20 - 0100 44.4 87 40.8 43.0 N | 0 0.0 0.0 SE | 130 0 0.0 0.00 0.00 38.1 73.0 0.118 0.0
10/25/20 - 0000 46.0 87 42.3 44.5 SE | 124 0.0 1.7 SE | 126 0 0.0 0.00 0.00 38.1 73.0 0.118 0.0
10/24/20 - 2300 47.9 84 43.1 45.9 N | 0 0.0 0.0 SSE | 163 0 0.0 0.00 0.00 38.1 73.0 0.118 0.0
10/24/20 - 2200 50.7 81 45.1 48.3 SE | 139 0.6 2.7 SE | 127 0 0.0 0.00 0.00 38.1 73.0 0.118 0.0
10/24/20 - 2100 52.5 77 45.7 49.5 SSE | 165 0.4 2.7 SW | 214 0 0.0 0.00 0.00 38.1 73.0 0.118 0.0
10/24/20 - 2000 56.0 69 46.1 51.2 S | 183 0.3 3.1 S | 186 0 0.0 0.00 0.00 38.1 73.0 0.118 0.0
10/24/20 - 1900 61.2 58 46.3 53.3 SSW | 197 2.0 5.4 SSW | 210 5 0.0 0.00 0.00 38.1 73.0 0.118 0.0
10/24/20 - 1800 66.6 46 45.2 54.6 SW | 225 5.4 13.8 W | 263 130 0.0 0.00 0.00 38.1 73.0 0.118 0.0
10/24/20 - 1700 69.9 35 41.2 53.8 WSW | 239 7.2 14.2 WSW | 243 323 0.0 0.00 0.00 38.1 73.0 0.114 0.0
10/24/20 - 1600 71.7 27 35.9 52.3 WSW | 254 7.3 13.8 W | 259 492 0.0 0.00 0.00 38.1 73.0 0.103 0.0
10/24/20 - 1500 72.2 22 31.2 50.9 WSW | 253 6.8 12.5 W | 262 618 0.0 0.00 0.00 38.1 73.0 0.087 0.0
10/24/20 - 1400 71.7 20 28.2 49.8 W | 260 6.6 11.5 W | 269 679 0.0 0.00 0.00 38.1 72.2 0.069 0.0
10/24/20 - 1300 69.4 29 35.7 51.6 W | 276 1.5 9.5 W | 264 687 0.0 0.00 0.00 38.1 71.1 0.049 0.0
10/24/20 - 1200 66.7 35 37.9 51.4 NE | 43 1.0 7.1 NE | 45 626 0.0 0.00 0.00 38.1 68.0 0.032 0.0
10/24/20 - 1100 62.7 45 40.9 51.3 WNW | 298 0.2 4.1 ENE | 70 503 0.0 0.00 0.00 38.1 65.4 0.017 0.0
10/24/20 - 1000 58.4 53 41.3 49.7 SE | 125 0.0 2.4 ESE | 119 339 0.0 0.00 0.00 38.1 61.2 0.007 0.0
10/24/20 - 0900 46.6 75 39.0 43.2 N | 0 0.0 0.0 S | 184 148 0.0 0.00 0.00 38.1 52.9 0.001 0.0
10/24/20 - 0800 38.5 86 34.8 37.0 N | 0 0.0 0.0 S | 186 10 0.0 0.00 0.00 38.1 43.1 0.000 0.0
Max 72.2 93 46.3 54.6 - 8.9 25.9 - 695 0.0 0.00 0.00 52.7 73.0 0.133 0.0
Avg 55.2 42 21.0 43.2 - 3.0 9.2 - 188 0.0 0.00 - - - - -
Min 36.7 3 -22.4 33.5 - 0.0 0.0 - 0 0.0 0.00 0.00 36.3 43.0 0.000 0.0
Total - - - - - - - - - - 0.00 - - - - -